Time;durP1;ratioP1;P1;durP2;ratioP2;P2;SDS_P1;SDS_P2;PMS_P1;PMS_P2;Temp;Humidity;BMP_temperature;BMP_pressure;BME280_temperature;BME280_humidity;BME280_pressure;Samples;Min_cycle;Max_cycle;Signal;HPM_P1;HPM_P2
2021/08/24 00:00:27;;;;;;;5.40;5.00;;;11.40;99.90;;;;;;6124673;23;20146;-85
2021/08/24 00:02:53;;;;;;;5.23;4.73;;;11.40;99.90;;;;;;6124714;23;20615;-84
2021/08/24 00:05:39;;;;;;;5.57;5.00;;;11.40;99.90;;;;;;6124367;23;20405;-83
2021/08/24 00:08:07;;;;;;;5.70;5.10;;;11.30;99.90;;;;;;6123859;23;20378;-84
2021/08/24 00:10:56;;;;;;;5.50;5.10;;;11.30;99.90;;;;;;6124324;23;20397;-84
2021/08/24 00:13:25;;;;;;;5.30;4.87;;;11.20;99.90;;;;;;6124585;23;20376;-84
2021/08/24 00:15:51;;;;;;;6.67;5.80;;;11.20;99.90;;;;;;6124487;23;20402;-84
2021/08/24 00:18:17;;;;;;;5.27;4.47;;;11.20;99.90;;;;;;6124140;23;20381;-85
2021/08/24 00:20:45;;;;;;;4.87;4.57;;;11.20;99.90;;;;;;6124260;23;20158;-85
2021/08/24 00:23:14;;;;;;;5.77;5.23;;;11.20;99.90;;;;;;6124282;23;20358;-84
2021/08/24 00:25:40;;;;;;;4.83;4.43;;;11.10;99.90;;;;;;6124311;23;20394;-84
2021/08/24 00:28:06;;;;;;;5.70;5.30;;;11.10;99.90;;;;;;6124289;23;20374;-84
2021/08/24 00:30:33;;;;;;;5.33;4.67;;;11.10;99.90;;;;;;6124246;23;20480;-84
2021/08/24 00:32:59;;;;;;;4.83;4.33;;;11.10;99.90;;;;;;6124401;23;20382;-82
2021/08/24 00:35:25;;;;;;;4.60;4.20;;;11.00;99.90;;;;;;6124215;23;20402;-83
2021/08/24 00:37:51;;;;;;;5.17;4.67;;;11.00;99.90;;;;;;6124499;23;20153;-84
2021/08/24 00:40:17;;;;;;;4.00;3.70;;;10.90;99.90;;;;;;6124037;23;20599;-84
2021/08/24 00:42:44;;;;;;;4.73;4.23;;;10.90;99.90;;;;;;6124320;23;20437;-83
2021/08/24 00:45:12;;;;;;;5.77;5.27;;;10.90;99.90;;;;;;6124164;23;20184;-84
2021/08/24 00:47:41;;;;;;;4.17;3.87;;;10.80;99.90;;;;;;6124103;23;20413;-84
2021/08/24 00:50:17;;;;;;;5.03;4.53;;;10.80;99.90;;;;;;6123795;23;20385;-83
2021/08/24 00:52:43;;;;;;;6.60;4.67;;;10.80;99.90;;;;;;6124065;23;20413;-83
2021/08/24 00:55:09;;;;;;;4.40;4.00;;;10.70;99.90;;;;;;6123787;23;20397;-84
2021/08/24 00:57:35;;;;;;;6.20;4.67;;;10.70;99.90;;;;;;6124192;23;20484;-84
2021/08/24 01:00:01;;;;;;;6.23;5.27;;;10.70;99.90;;;;;;6123719;23;20547;-84
2021/08/24 01:02:26;;;;;;;5.53;4.10;;;10.70;99.90;;;;;;6124070;23;20146;-84
2021/08/24 01:04:53;;;;;;;5.37;4.90;;;10.60;99.90;;;;;;6124040;23;20185;-86
2021/08/24 01:07:29;;;;;;;4.47;4.10;;;10.60;99.90;;;;;;6124074;23;20158;-83
2021/08/24 01:10:08;;;;;;;4.20;3.90;;;10.60;99.90;;;;;;6123595;23;20451;-84
2021/08/24 01:13:02;;;;;;;4.43;4.07;;;10.60;99.90;;;;;;6125374;23;20445;-84
2021/08/24 01:15:45;;;;;;;5.17;3.90;;;10.50;99.90;;;;;;6123978;23;20490;-83
2021/08/24 01:18:23;;;;;;;5.37;4.30;;;10.50;99.90;;;;;;6123710;23;20460;-83
2021/08/24 01:21:04;;;;;;;5.70;4.10;;;10.40;99.90;;;;;;6123996;23;20416;-84
2021/08/24 01:23:35;;;;;;;4.43;4.13;;;10.40;99.90;;;;;;6124321;23;20432;-84
2021/08/24 01:26:01;;;;;;;5.60;5.10;;;10.40;99.90;;;;;;6123652;23;20486;-83
2021/08/24 01:29:12;;;;;;;3.87;3.57;;;10.40;99.90;;;;;;6123422;23;20421;-86
2021/08/24 01:32:05;;;;;;;5.33;4.20;;;10.40;99.90;;;;;;6033984;23;20240;-84
2021/08/24 01:34:55;;;;;;;5.13;4.63;;;10.30;99.90;;;;;;6123746;23;20402;-85
2021/08/24 01:37:39;;;;;;;6.67;4.23;;;10.30;99.90;;;;;;6123766;23;20385;-84
2021/08/24 01:40:16;;;;;;;5.10;4.63;;;10.20;99.90;;;;;;6123682;23;20378;-84
2021/08/24 01:42:44;;;;;;;6.23;4.60;;;10.20;99.90;;;;;;6123951;23;20390;-84
2021/08/24 01:45:35;;;;;;;4.43;3.90;;;10.20;99.90;;;;;;6123820;23;20804;-86
2021/08/24 01:48:08;;;;;;;3.73;3.20;;;10.10;99.90;;;;;;6123565;23;20369;-83
2021/08/24 01:50:47;;;;;;;4.03;3.60;;;10.10;99.90;;;;;;6125611;23;20400;-85
2021/08/24 01:53:35;;;;;;;5.97;4.30;;;10.10;99.90;;;;;;6123950;23;20712;-84
2021/08/24 01:56:10;;;;;;;4.50;4.20;;;10.10;99.90;;;;;;6123637;23;20402;-83
2021/08/24 01:58:48;;;;;;;3.27;3.07;;;10.10;99.90;;;;;;6123611;23;20452;-85
2021/08/24 02:01:18;;;;;;;3.87;3.57;;;10.10;99.90;;;;;;6123756;23;20431;-85
2021/08/24 02:03:48;;;;;;;5.07;4.00;;;10.00;99.90;;;;;;6123561;23;20424;-84
2021/08/24 02:06:21;;;;;;;4.10;3.70;;;10.00;99.90;;;;;;6124117;23;20489;-85
2021/08/24 02:08:53;;;;;;;3.97;3.57;;;9.90;99.90;;;;;;6123397;23;20401;-84
2021/08/24 02:11:19;;;;;;;4.23;3.93;;;9.90;99.90;;;;;;6123537;23;20489;-84
2021/08/24 02:13:49;;;;;;;3.07;2.97;;;9.90;99.90;;;;;;6123726;23;20374;-83
2021/08/24 02:16:25;;;;;;;4.90;4.40;;;9.80;99.90;;;;;;6123530;23;20394;-83
2021/08/24 02:19:00;;;;;;;3.13;2.93;;;9.80;99.90;;;;;;6123494;23;20385;-82
2021/08/24 02:21:49;;;;;;;3.67;3.33;;;9.70;99.90;;;;;;6123631;23;20843;-83
2021/08/24 02:24:20;;;;;;;3.50;3.20;;;9.70;99.90;;;;;;6105678;23;20381;-83
2021/08/24 02:26:49;;;;;;;4.93;4.53;;;9.70;99.90;;;;;;6123552;23;20896;-83
2021/08/24 02:29:15;;;;;;;3.63;2.97;;;9.70;99.90;;;;;;6123175;23;20405;-83
2021/08/24 02:31:52;;;;;;;3.70;3.40;;;9.70;99.90;;;;;;6123502;23;20421;-83
2021/08/24 02:34:31;;;;;;;7.93;3.80;;;9.70;99.90;;;;;;6123455;23;20858;-83
2021/08/24 02:37:13;;;;;;;4.33;3.60;;;9.70;99.90;;;;;;6123542;23;20385;-83
2021/08/24 02:40:14;;;;;;;4.10;3.33;;;9.60;99.90;;;;;;6123068;23;20409;-83
2021/08/24 02:43:00;;;;;;;4.80;4.40;;;9.60;99.90;;;;;;6086850;23;20384;-83
2021/08/24 02:45:39;;;;;;;3.90;3.57;;;9.60;99.90;;;;;;6065831;23;20428;-83
2021/08/24 02:48:10;;;;;;;3.60;3.40;;;9.50;99.90;;;;;;6125271;23;20719;-83
2021/08/24 02:50:37;;;;;;;4.43;3.70;;;9.50;99.90;;;;;;6125361;23;20381;-83
2021/08/24 02:53:03;;;;;;;3.20;2.97;;;9.50;99.90;;;;;;6125415;23;20406;-83
2021/08/24 02:55:29;;;;;;;3.50;3.20;;;9.50;99.90;;;;;;6125388;23;20455;-83
2021/08/24 02:57:56;;;;;;;3.87;3.57;;;9.40;99.90;;;;;;6125903;23;20452;-89
2021/08/24 03:00:21;;;;;;;3.40;3.07;;;9.40;99.90;;;;;;6125127;23;20621;-84
2021/08/24 03:02:47;;;;;;;3.03;2.47;;;9.40;99.90;;;;;;6125185;23;20468;-84
2021/08/24 03:05:13;;;;;;;5.90;3.00;;;9.40;99.90;;;;;;6125229;23;20173;-84
2021/08/24 03:07:40;;;;;;;3.80;3.50;;;9.40;99.90;;;;;;6125210;23;20228;-84
2021/08/24 03:10:14;;;;;;;5.10;3.00;;;9.30;99.90;;;;;;6124849;23;20199;-85
2021/08/24 03:12:54;;;;;;;3.33;3.03;;;9.30;99.90;;;;;;6124985;23;20422;-84
2021/08/24 03:15:28;;;;;;;3.43;3.23;;;9.30;99.90;;;;;;6124879;23;20421;-84
2021/08/24 03:18:19;;;;;;;3.30;3.10;;;9.20;99.90;;;;;;6126593;23;20365;-84
2021/08/24 03:20:48;;;;;;;3.17;2.87;;;9.20;99.90;;;;;;6111498;23;20459;-87
2021/08/24 03:23:17;;;;;;;4.03;3.60;;;9.20;99.90;;;;;;6124961;23;20412;-84
2021/08/24 03:25:45;;;;;;;3.60;3.30;;;9.10;99.90;;;;;;6124817;23;20845;-84
2021/08/24 03:28:14;;;;;;;5.63;4.20;;;9.10;99.90;;;;;;6124729;23;20377;-85
2021/08/24 03:30:40;;;;;;;2.97;2.77;;;9.10;99.90;;;;;;6124921;23;20381;-84
2021/08/24 03:33:05;;;;;;;3.43;3.13;;;9.10;99.90;;;;;;6124971;23;20396;-84
2021/08/24 03:35:31;;;;;;;2.60;2.50;;;9.10;99.90;;;;;;6124846;23;20393;-85
2021/08/24 03:37:57;;;;;;;3.37;3.07;;;9.10;99.90;;;;;;6124932;23;20575;-84
2021/08/24 03:40:23;;;;;;;2.93;2.73;;;9.10;99.90;;;;;;6124828;23;20607;-84
2021/08/24 03:42:48;;;;;;;3.93;3.50;;;9.10;99.90;;;;;;6125003;23;20483;-84
2021/08/24 03:45:14;;;;;;;3.60;3.30;;;9.10;99.90;;;;;;6124755;23;20174;-84
2021/08/24 03:47:40;;;;;;;3.00;2.80;;;9.10;99.90;;;;;;6124784;23;20153;-84
2021/08/24 03:50:07;;;;;;;6.20;4.83;;;9.10;99.90;;;;;;6124905;23;20165;-83
2021/08/24 03:52:33;;;;;;;3.53;3.23;;;9.10;99.90;;;;;;6124513;23;20185;-84
2021/08/24 03:54:59;;;;;;;4.20;3.30;;;9.10;99.90;;;;;;6124637;23;20394;-84
2021/08/24 03:57:24;;;;;;;3.20;2.90;;;9.10;99.90;;;;;;6124628;23;20397;-84
2021/08/24 03:59:55;;;;;;;4.00;3.53;;;9.10;99.90;;;;;;6126318;23;20213;-85
2021/08/24 04:02:21;;;;;;;2.90;2.70;;;9.10;99.90;;;;;;6124805;23;20607;-84
2021/08/24 04:04:46;;;;;;;3.60;3.30;;;9.10;99.90;;;;;;6124488;23;20460;-85
2021/08/24 04:07:12;;;;;;;3.50;3.20;;;9.10;99.90;;;;;;6124628;23;20161;-84
2021/08/24 04:09:37;;;;;;;3.60;3.30;;;9.10;99.90;;;;;;6124468;23;20169;-83
2021/08/24 04:12:04;;;;;;;4.93;3.60;;;9.10;99.90;;;;;;6124978;23;20220;-83
2021/08/24 04:14:29;;;;;;;3.37;3.03;;;9.10;99.90;;;;;;6124570;23;20174;-84
2021/08/24 04:16:55;;;;;;;2.90;2.70;;;9.10;99.90;;;;;;6124554;23;20867;-84
2021/08/24 04:19:21;;;;;;;3.30;3.10;;;9.10;99.90;;;;;;6124584;23;20158;-85
2021/08/24 04:21:46;;;;;;;3.50;3.30;;;9.00;99.90;;;;;;6124598;23;20153;-84
2021/08/24 04:24:12;;;;;;;4.43;2.70;;;9.00;99.90;;;;;;6124446;23;20168;-83
2021/08/24 04:26:41;;;;;;;3.57;2.80;;;9.10;99.90;;;;;;6124590;23;20220;-83
2021/08/24 04:29:07;;;;;;;3.57;3.17;;;9.10;99.90;;;;;;6124489;23;20662;-83
2021/08/24 04:31:36;;;;;;;3.87;3.57;;;9.10;99.90;;;;;;6124375;23;20426;-84
2021/08/24 04:34:02;;;;;;;4.13;2.60;;;9.10;99.90;;;;;;6124245;23;20158;-83
2021/08/24 04:36:29;;;;;;;3.47;2.70;;;9.10;99.90;;;;;;6124508;23;20433;-84
2021/08/24 04:38:54;;;;;;;3.73;3.20;;;9.20;99.90;;;;;;6124525;23;20378;-84
2021/08/24 04:41:20;;;;;;;3.13;2.90;;;9.20;99.90;;;;;;6124409;23;20394;-83
2021/08/24 04:43:46;;;;;;;4.53;4.20;;;9.20;99.90;;;;;;6124408;23;20162;-84
2021/08/24 04:46:11;;;;;;;4.90;3.20;;;9.20;99.90;;;;;;6124256;23;20229;-86
2021/08/24 04:48:37;;;;;;;3.63;3.17;;;9.20;99.90;;;;;;6124466;23;20160;-84
2021/08/24 04:51:03;;;;;;;4.43;3.60;;;9.10;99.90;;;;;;6124266;23;20184;-84
2021/08/24 04:53:29;;;;;;;3.10;2.80;;;9.10;99.90;;;;;;6124237;23;20536;-83
2021/08/24 04:55:56;;;;;;;2.93;2.63;;;9.10;99.90;;;;;;6124274;23;20170;-83
2021/08/24 04:58:23;;;;;;;4.73;3.40;;;9.00;99.90;;;;;;6124323;23;20393;-83
2021/08/24 05:00:48;;;;;;;4.20;3.80;;;9.00;99.90;;;;;;6124338;23;20877;-84
2021/08/24 05:03:15;;;;;;;3.20;2.93;;;9.00;99.90;;;;;;6125850;23;20441;-83
2021/08/24 05:05:40;;;;;;;4.07;2.93;;;9.10;99.90;;;;;;6124064;23;20260;-86
2021/08/24 05:08:06;;;;;;;4.80;4.40;;;9.00;99.90;;;;;;6124112;23;20771;-84
2021/08/24 05:10:33;;;;;;;4.20;3.83;;;9.00;99.90;;;;;;6124076;23;20166;-84
2021/08/24 05:13:00;;;;;;;4.30;3.93;;;9.10;99.90;;;;;;6124334;23;20342;-84
2021/08/24 05:15:26;;;;;;;4.63;3.83;;;9.00;99.90;;;;;;6124038;23;20879;-84
2021/08/24 05:17:52;;;;;;;5.13;4.63;;;9.10;99.90;;;;;;6124032;23;20388;-84
2021/08/24 05:20:18;;;;;;;5.20;4.10;;;9.10;99.90;;;;;;6124066;23;20465;-83
2021/08/24 05:22:45;;;;;;;4.80;4.40;;;9.20;99.90;;;;;;6124103;23;20500;-83
2021/08/24 05:25:13;;;;;;;6.13;5.53;;;9.20;99.90;;;;;;6123929;23;20406;-84
2021/08/24 05:27:39;;;;;;;8.27;6.00;;;9.20;99.90;;;;;;6124090;23;20382;-84
2021/08/24 05:30:07;;;;;;;10.47;5.57;;;9.30;99.90;;;;;;6123993;23;20529;-83
2021/08/24 05:32:34;;;;;;;7.13;4.93;;;9.40;99.90;;;;;;6123771;23;20459;-87
2021/08/24 05:34:59;;;;;;;4.73;4.10;;;9.40;99.90;;;;;;6123769;23;20402;-87
2021/08/24 05:37:25;;;;;;;4.43;4.13;;;9.40;99.90;;;;;;6123920;23;20733;-83
2021/08/24 05:39:51;;;;;;;5.00;4.00;;;9.50;99.90;;;;;;6123910;23;20157;-83
2021/08/24 05:42:17;;;;;;;5.30;4.57;;;9.60;99.90;;;;;;6124218;23;20554;-83
2021/08/24 05:44:42;;;;;;;6.50;5.10;;;9.60;99.90;;;;;;6123759;23;20188;-84
2021/08/24 05:47:08;;;;;;;5.10;4.60;;;9.70;99.90;;;;;;6123839;23;20719;-84
2021/08/24 05:49:35;;;;;;;5.90;5.30;;;9.70;99.90;;;;;;6123754;23;20165;-84
2021/08/24 05:52:02;;;;;;;5.97;5.37;;;9.80;99.90;;;;;;6123442;23;20914;-88
2021/08/24 05:54:28;;;;;;;7.63;6.80;;;9.80;99.90;;;;;;6122778;23;20390;-83
2021/08/24 05:56:54;;;;;;;4.53;4.20;;;9.90;99.90;;;;;;6122411;23;20378;-85
2021/08/24 05:59:20;;;;;;;5.43;4.93;;;10.50;99.90;;;;;;6123411;23;20385;-85
2021/08/24 06:01:45;;;;;;;4.30;3.90;;;10.80;99.90;;;;;;6123606;23;20153;-85
2021/08/24 06:04:11;;;;;;;5.50;4.87;;;11.30;99.90;;;;;;6123820;23;20390;-85
2021/08/24 06:06:39;;;;;;;6.60;4.70;;;11.80;99.90;;;;;;6123652;23;20599;-85
2021/08/24 06:09:08;;;;;;;4.97;4.57;;;12.10;99.90;;;;;;6123094;23;20545;-85
2021/08/24 06:11:40;;;;;;;4.93;4.53;;;12.40;99.90;;;;;;6123393;23;20505;-85
2021/08/24 06:14:07;;;;;;;6.80;4.13;;;12.40;99.90;;;;;;6123323;23;20381;-86
2021/08/24 06:16:34;;;;;;;5.43;5.03;;;12.50;99.90;;;;;;6123577;23;20462;-87
2021/08/24 06:19:00;;;;;;;5.00;3.97;;;12.70;99.90;;;;;;6122644;23;20377;-86
2021/08/24 06:21:26;;;;;;;4.97;4.50;;;12.90;99.90;;;;;;6123581;23;20389;-84
2021/08/24 06:23:53;;;;;;;3.90;3.67;;;13.10;99.90;;;;;;6123356;23;20382;-85
2021/08/24 06:26:19;;;;;;;5.13;4.20;;;13.20;99.90;;;;;;6123183;23;20405;-86
2021/08/24 06:28:45;;;;;;;4.20;3.87;;;13.30;99.90;;;;;;6123184;23;20764;-85
2021/08/24 06:31:15;;;;;;;3.70;3.40;;;13.50;99.90;;;;;;6123259;23;20524;-85
2021/08/24 06:33:42;;;;;;;6.30;4.50;;;13.70;99.90;;;;;;6123381;23;20374;-85
2021/08/24 06:36:08;;;;;;;3.20;3.00;;;13.90;99.90;;;;;;6123161;23;20413;-86
2021/08/24 06:38:34;;;;;;;3.47;3.17;;;14.00;99.90;;;;;;6123039;23;20373;-86
2021/08/24 06:41:01;;;;;;;3.53;3.33;;;14.10;99.90;;;;;;6123417;23;20181;-86
2021/08/24 06:43:28;;;;;;;4.07;3.67;;;14.50;99.90;;;;;;6123252;23;20458;-87
2021/08/24 06:45:54;;;;;;;3.43;3.13;;;14.70;99.90;;;;;;6123420;23;20457;-88
2021/08/24 06:48:19;;;;;;;3.83;3.47;;;14.90;99.90;;;;;;6123140;23;20758;-88
2021/08/24 06:50:45;;;;;;;3.20;3.00;;;14.80;99.90;;;;;;6123282;23;20186;-88
2021/08/24 06:53:11;;;;;;;3.40;3.10;;;15.00;99.90;;;;;;6123569;23;20181;-88
2021/08/24 06:55:38;;;;;;;5.20;3.50;;;15.10;99.90;;;;;;6123391;23;20401;-85
2021/08/24 06:58:06;;;;;;;3.53;3.00;;;14.90;99.90;;;;;;6123206;23;20408;-85
2021/08/24 07:00:34;;;;;;;3.17;2.43;;;14.90;99.90;;;;;;6123308;23;20373;-86
2021/08/24 07:03:00;;;;;;;2.80;2.60;;;14.70;99.90;;;;;;6123263;23;20413;-87
2021/08/24 07:05:29;;;;;;;2.67;2.47;;;15.00;99.90;;;;;;6123315;23;20887;-85
2021/08/24 07:07:55;;;;;;;2.87;2.70;;;14.70;99.90;;;;;;6123248;23;20488;-84
2021/08/24 07:10:22;;;;;;;2.73;2.30;;;14.70;99.90;;;;;;6123073;23;20405;-84
2021/08/24 07:12:48;;;;;;;4.40;2.90;;;14.80;99.90;;;;;;6123168;23;20428;-84
2021/08/24 07:15:17;;;;;;;2.57;2.40;;;14.90;99.90;;;;;;6123091;23;20433;-84
2021/08/24 07:17:43;;;;;;;4.53;2.93;;;14.80;99.90;;;;;;6123247;23;20150;-84
2021/08/24 07:20:12;;;;;;;2.83;2.63;;;14.70;99.90;;;;;;6123211;23;20771;-84
2021/08/24 07:22:38;;;;;;;3.73;2.23;;;14.80;99.90;;;;;;6123635;23;20417;-86
2021/08/24 07:25:07;;;;;;;2.17;2.03;;;14.80;99.90;;;;;;6123222;23;20880;-86
2021/08/24 07:27:33;;;;;;;2.30;2.20;;;14.70;99.90;;;;;;6123618;23;20640;-85
2021/08/24 07:29:59;;;;;;;2.07;1.90;;;14.90;99.90;;;;;;6122931;23;20424;-85
2021/08/24 07:32:25;;;;;;;2.27;2.07;;;15.00;99.90;;;;;;6125270;23;20256;-86
2021/08/24 07:34:50;;;;;;;4.50;2.20;;;15.20;99.90;;;;;;6124963;23;20178;-85
2021/08/24 07:37:16;;;;;;;2.40;1.80;;;15.20;99.90;;;;;;6125182;23;20880;-85
2021/08/24 07:39:43;;;;;;;3.10;2.00;;;15.20;99.90;;;;;;6124517;23;20164;-85
2021/08/24 07:42:09;;;;;;;4.20;2.87;;;15.40;99.90;;;;;;6125277;23;20158;-85
2021/08/24 07:44:34;;;;;;;2.57;2.37;;;15.40;99.90;;;;;;6124948;23;20817;-85
2021/08/24 07:47:01;;;;;;;3.93;2.60;;;15.40;99.90;;;;;;6124813;23;20714;-85
2021/08/24 07:49:30;;;;;;;2.57;2.40;;;15.40;99.90;;;;;;6124643;23;20157;-85
2021/08/24 07:51:55;;;;;;;2.47;2.23;;;15.50;99.90;;;;;;6124975;23;20507;-85
2021/08/24 07:54:22;;;;;;;2.50;2.10;;;15.60;99.90;;;;;;6124660;23;20874;-85
2021/08/24 07:56:48;;;;;;;2.57;2.37;;;15.60;99.90;;;;;;6124924;23;20150;-85
2021/08/24 07:59:14;;;;;;;3.40;2.80;;;15.60;99.90;;;;;;6124432;23;20420;-85
2021/08/24 08:01:39;;;;;;;2.40;2.20;;;15.60;99.90;;;;;;6124792;23;20386;-85
2021/08/24 08:04:05;;;;;;;2.60;2.50;;;15.70;99.90;;;;;;6125070;23;20662;-85
2021/08/24 08:06:31;;;;;;;3.40;2.50;;;15.70;99.90;;;;;;6124834;23;20158;-85
2021/08/24 08:08:56;;;;;;;2.83;2.13;;;15.80;99.90;;;;;;6124329;23;20326;-85
2021/08/24 08:11:22;;;;;;;3.77;2.63;;;15.90;99.90;;;;;;6124611;23;20173;-85
2021/08/24 08:13:48;;;;;;;2.77;2.47;;;16.10;99.90;;;;;;6124648;23;20150;-86
2021/08/24 08:16:14;;;;;;;2.00;1.90;;;16.20;99.90;;;;;;6124467;23;20409;-87
2021/08/24 08:18:40;;;;;;;1.80;1.70;;;16.30;99.90;;;;;;6124256;23;20154;-86
2021/08/24 08:21:06;;;;;;;2.50;1.80;;;16.30;99.90;;;;;;6124569;23;20154;-86
2021/08/24 08:23:32;;;;;;;6.83;2.63;;;16.40;99.90;;;;;;6124382;23;20165;-86
2021/08/24 08:25:57;;;;;;;2.17;2.07;;;16.50;99.90;;;;;;6124356;23;20401;-86
2021/08/24 08:28:23;;;;;;;2.47;2.00;;;16.60;99.90;;;;;;6124611;23;20240;-86
2021/08/24 08:30:49;;;;;;;2.40;2.20;;;16.80;99.90;;;;;;6124358;23;20630;-88
2021/08/24 08:33:16;;;;;;;3.40;2.93;;;16.90;99.90;;;;;;6124571;23;20146;-87
2021/08/24 08:35:42;;;;;;;2.63;2.43;;;16.90;99.90;;;;;;6124326;23;20174;-86
2021/08/24 08:38:09;;;;;;;2.27;2.10;;;17.00;99.60;;;;;;6124023;23;20731;-86
2021/08/24 08:41:11;;;;;;;2.30;2.00;;;17.00;99.90;;;;;;6124374;23;20374;-87
2021/08/24 08:44:09;;;;;;;2.20;2.00;;;17.10;99.80;;;;;;6125240;23;20385;-86
2021/08/24 08:46:40;;;;;;;5.20;4.50;;;17.20;99.80;;;;;;6028032;23;20873;-86
2021/08/24 08:49:44;;;;;;;2.70;1.70;;;17.30;98.50;;;;;;6127836;23;20922;-85
2021/08/24 08:52:28;;;;;;;3.20;2.53;;;17.40;98.30;;;;;;6064872;23;20441;-85
2021/08/24 08:55:12;;;;;;;2.10;1.80;;;17.60;98.80;;;;;;6124652;23;20408;-84
2021/08/24 08:57:59;;;;;;;2.17;1.80;;;17.70;98.10;;;;;;6125749;23;20457;-85
2021/08/24 09:00:45;;;;;;;2.20;1.97;;;17.80;98.50;;;;;;6125535;23;20412;-89
2021/08/24 09:03:14;;;;;;;2.37;2.27;;;17.90;96.90;;;;;;6106296;23;20380;-87
2021/08/24 09:05:40;;;;;;;3.90;1.70;;;18.10;97.50;;;;;;6129897;23;20429;-87
2021/08/24 09:08:07;;;;;;;2.90;2.70;;;18.10;97.30;;;;;;6128362;23;20867;-89
2021/08/24 09:10:43;;;;;;;2.33;1.93;;;18.30;97.30;;;;;;6135069;23;20397;-88
2021/08/24 09:13:15;;;;;;;1.90;1.70;;;18.40;97.10;;;;;;6136262;23;20381;-86
2021/08/24 09:15:58;;;;;;;2.20;1.77;;;18.50;97.10;;;;;;6136079;23;20417;-88
2021/08/24 09:18:54;;;;;;;2.93;1.73;;;18.70;96.60;;;;;;6138938;23;20440;-84
2021/08/24 09:21:39;;;;;;;2.33;1.90;;;18.90;97.80;;;;;;6142176;23;20461;-84
2021/08/24 09:24:19;;;;;;;2.07;1.87;;;19.00;95.10;;;;;;6164172;23;20386;-86
2021/08/24 09:27:09;;;;;;;2.73;2.47;;;19.10;96.40;;;;;;6132783;23;20464;-86
2021/08/24 09:29:41;;;;;;;2.03;1.90;;;19.10;95.70;;;;;;6139195;23;20425;-85
2021/08/24 09:32:11;;;;;;;2.17;2.00;;;19.20;95.90;;;;;;6138181;23;20421;-86
2021/08/24 09:34:44;;;;;;;2.03;1.70;;;19.00;94.30;;;;;;6136239;23;20396;-87
2021/08/24 09:37:16;;;;;;;2.30;2.10;;;19.20;94.70;;;;;;6133414;23;20374;-84
2021/08/24 09:39:53;;;;;;;1.97;1.87;;;19.20;95.50;;;;;;6133199;23;20844;-87
2021/08/24 09:42:43;;;;;;;4.53;3.53;;;19.30;96.20;;;;;;6129597;23;20388;-89
2021/08/24 09:45:18;;;;;;;2.83;2.57;;;19.50;94.40;;;;;;6137280;23;20401;-86
2021/08/24 09:48:01;;;;;;;2.40;2.20;;;19.30;94.30;;;;;;6139356;23;20382;-84
2021/08/24 09:50:33;;;;;;;2.63;2.43;;;19.50;93.80;;;;;;6140490;23;20381;-85
2021/08/24 09:53:00;;;;;;;2.40;2.20;;;19.70;93.10;;;;;;6136840;23;20413;-84
2021/08/24 09:55:28;;;;;;;2.57;2.37;;;19.60;92.40;;;;;;6137801;23;20405;-85
2021/08/24 09:58:00;;;;;;;2.60;2.40;;;19.80;94.00;;;;;;6134551;23;20869;-86
2021/08/24 10:00:55;;;;;;;3.23;2.60;;;20.00;93.60;;;;;;6132856;23;20439;-86
2021/08/24 10:03:35;;;;;;;3.13;2.60;;;20.20;92.80;;;;;;6133093;23;20432;-86
2021/08/24 10:06:24;;;;;;;5.40;2.80;;;20.30;92.90;;;;;;6134503;23;20899;-85
2021/08/24 10:08:54;;;;;;;3.40;2.50;;;20.40;92.70;;;;;;6124328;23;20393;-84
2021/08/24 10:11:33;;;;;;;2.93;2.73;;;20.10;92.00;;;;;;6103744;23;20421;-86
2021/08/24 10:14:21;;;;;;;3.13;2.87;;;19.60;92.60;;;;;;6112954;23;20373;-86
2021/08/24 10:16:48;;;;;;;3.10;2.60;;;19.60;92.90;;;;;;6106352;23;20867;-85
2021/08/24 10:19:30;;;;;;;3.20;2.90;;;19.80;93.40;;;;;;6099802;23;20393;-90
2021/08/24 10:22:07;;;;;;;2.87;2.60;;;20.40;93.70;;;;;;6078370;23;20405;-89
2021/08/24 10:24:51;;;;;;;2.87;2.67;;;20.90;91.40;;;;;;6102044;23;20452;-86
2021/08/24 10:27:38;;;;;;;4.60;3.10;;;20.70;90.50;;;;;;6104494;23;20381;-89
2021/08/24 10:30:13;;;;;;;2.83;2.63;;;20.60;90.60;;;;;;6100970;23;20374;-89
2021/08/24 10:32:44;;;;;;;3.00;2.60;;;20.50;90.80;;;;;;6100275;23;20464;-89
2021/08/24 10:35:39;;;;;;;3.07;2.77;;;21.00;92.10;;;;;;6100458;23;20471;-87
2021/08/24 10:38:05;;;;;;;2.80;2.60;;;21.00;89.00;;;;;;6100790;23;20382;-88
2021/08/24 10:40:43;;;;;;;2.50;2.30;;;20.90;89.80;;;;;;6104510;23;20384;-87
2021/08/24 10:43:15;;;;;;;3.80;3.00;;;20.80;90.70;;;;;;6101177;23;20835;-88
2021/08/24 10:46:17;;;;;;;3.23;1.90;;;20.80;89.60;;;;;;6101176;23;20409;-90
2021/08/24 10:48:43;;;;;;;4.83;2.57;;;20.70;90.70;;;;;;5983488;23;20475;-87
2021/08/24 10:51:23;;;;;;;4.13;3.07;;;20.50;90.00;;;;;;6052839;23;20500;-88
2021/08/24 10:54:15;;;;;;;2.50;2.30;;;20.50;90.60;;;;;;6099279;23;20461;-90
2021/08/24 10:57:07;;;;;;;3.60;2.50;;;21.20;90.80;;;;;;6099007;23;20370;-89
2021/08/24 11:00:10;;;;;;;2.30;2.10;;;21.40;88.20;;;;;;6055040;23;20377;-89
2021/08/24 11:03:18;;;;;;;2.67;2.30;;;21.70;86.40;;;;;;6099012;23;20464;-88
2021/08/24 11:06:01;;;;;;;2.23;2.03;;;22.40;91.30;;;;;;6099579;23;20405;-89
2021/08/24 11:08:57;;;;;;;3.07;2.87;;;23.00;89.80;;;;;;6104647;23;20378;-88
2021/08/24 11:11:32;;;;;;;3.40;2.37;;;23.00;81.70;;;;;;6130296;23;20836;-88
2021/08/24 11:14:19;;;;;;;3.60;2.73;;;22.80;83.80;;;;;;6130492;23;20865;-87
2021/08/24 11:17:08;;;;;;;2.57;2.33;;;23.00;85.10;;;;;;6130252;23;20408;-88
2021/08/24 11:19:38;;;;;;;2.50;2.30;;;23.20;80.10;;;;;;6130019;23;20412;-89
2021/08/24 11:22:42;;;;;;;2.97;2.63;;;23.30;81.50;;;;;;6130878;23;20427;-88
2021/08/24 11:25:19;;;;;;;3.53;2.53;;;23.80;80.70;;;;;;6129999;23;20388;-86
2021/08/24 11:28:02;;;;;;;2.57;2.30;;;24.20;82.10;;;;;;6129970;23;20423;-87
2021/08/24 11:30:31;;;;;;;2.90;2.60;;;24.60;87.10;;;;;;6130117;23;20365;-88
2021/08/24 11:33:09;;;;;;;2.50;2.30;;;24.60;79.30;;;;;;6129825;23;20917;-88
2021/08/24 11:35:41;;;;;;;3.00;2.80;;;24.50;79.80;;;;;;6130251;23;20428;-86
2021/08/24 11:38:13;;;;;;;2.83;2.50;;;24.50;78.20;;;;;;6129607;23;20369;-88
2021/08/24 11:40:52;;;;;;;3.03;2.73;;;24.30;81.70;;;;;;6131359;23;20400;-88
2021/08/24 11:43:41;;;;;;;3.20;2.90;;;24.00;76.30;;;;;;6129948;23;20453;-87
2021/08/24 11:46:14;;;;;;;3.77;2.60;;;24.10;75.20;;;;;;6108997;23;20404;-86
2021/08/24 11:48:43;;;;;;;3.83;2.97;;;24.40;74.30;;;;;;6129763;23;20369;-86
2021/08/24 11:51:12;;;;;;;3.90;2.93;;;24.20;75.30;;;;;;6132567;23;20416;-85
2021/08/24 11:53:50;;;;;;;4.40;3.67;;;24.40;76.70;;;;;;6136579;23;20380;-86
2021/08/24 11:56:51;;;;;;;4.30;2.77;;;24.40;79.20;;;;;;6137694;23;20424;-85
2021/08/24 11:59:35;;;;;;;3.97;3.10;;;24.60;77.00;;;;;;6116129;23;20696;-86
2021/08/24 12:02:00;;;;;;;4.83;2.93;;;25.40;74.10;;;;;;6134056;23;20752;-86
2021/08/24 12:04:31;;;;;;;3.40;2.43;;;25.40;72.70;;;;;;6137571;23;20543;-86
2021/08/24 12:07:02;;;;;;;5.17;3.80;;;25.60;74.10;;;;;;6137581;23;20153;-86
2021/08/24 12:09:49;;;;;;;4.30;3.27;;;25.20;74.30;;;;;;6131406;23;20465;-86
2021/08/24 12:12:54;;;;;;;2.73;2.50;;;25.50;72.40;;;;;;6133296;23;20492;-86
2021/08/24 12:15:41;;;;;;;2.90;2.70;;;25.80;73.20;;;;;;6135059;23;20413;-86
2021/08/24 12:18:19;;;;;;;2.77;2.53;;;26.20;70.30;;;;;;6131549;23;20379;-86
2021/08/24 12:20:46;;;;;;;6.43;3.40;;;26.30;71.20;;;;;;6132658;23;20381;-86
2021/08/24 12:23:29;;;;;;;2.40;2.00;;;26.20;67.90;;;;;;6132660;23;20481;-86
2021/08/24 12:25:55;;;;;;;4.20;3.20;;;26.50;71.70;;;;;;6134483;23;20484;-86
2021/08/24 12:28:22;;;;;;;9.33;3.73;;;26.20;64.40;;;;;;6134369;23;20392;-87
2021/08/24 12:31:00;;;;;;;5.50;2.90;;;26.00;62.40;;;;;;6136512;23;20397;-88
2021/08/24 12:33:43;;;;;;;3.40;3.20;;;26.10;65.00;;;;;;6134493;23;20424;-87
2021/08/24 12:36:29;;;;;;;2.80;2.53;;;26.60;68.20;;;;;;6126835;23;20414;-87
2021/08/24 12:38:57;;;;;;;4.13;3.50;;;27.10;64.00;;;;;;6108309;23;20394;-87
2021/08/24 12:41:35;;;;;;;3.57;3.30;;;27.20;63.80;;;;;;6130907;23;20440;-86
2021/08/24 12:44:13;;;;;;;4.50;2.97;;;27.40;65.70;;;;;;6130525;23;20385;-87
2021/08/24 12:46:46;;;;;;;3.10;2.70;;;27.70;62.20;;;;;;6133747;23;20417;-87
2021/08/24 12:49:18;;;;;;;3.00;2.63;;;27.20;57.80;;;;;;6132932;23;20390;-87
2021/08/24 12:52:00;;;;;;;3.90;3.43;;;26.80;60.80;;;;;;6132448;23;20421;-87
2021/08/24 12:54:29;;;;;;;4.87;3.77;;;26.80;59.20;;;;;;6131669;23;20397;-88
2021/08/24 12:57:15;;;;;;;4.43;3.23;;;27.20;64.90;;;;;;6132008;23;20392;-87
2021/08/24 12:59:47;;;;;;;4.10;3.57;;;27.50;62.90;;;;;;6130571;23;20374;-88
2021/08/24 13:02:30;;;;;;;4.27;3.83;;;27.60;61.50;;;;;;6129608;23;20377;-87
2021/08/24 13:05:15;;;;;;;3.43;3.03;;;27.70;59.40;;;;;;6129846;23;20406;-88
2021/08/24 13:08:12;;;;;;;3.47;3.17;;;28.00;61.30;;;;;;6128645;23;20441;-87
2021/08/24 13:10:46;;;;;;;3.60;2.83;;;28.30;59.80;;;;;;6104725;23;20393;-88
2021/08/24 13:13:34;;;;;;;3.67;3.00;;;28.10;59.90;;;;;;6109189;23;20937;-87
2021/08/24 13:16:14;;;;;;;4.67;4.00;;;28.10;58.70;;;;;;6099410;23;20476;-89
2021/08/24 13:18:55;;;;;;;5.03;3.93;;;28.20;58.30;;;;;;6099269;23;20373;-87